Time;durP1;ratioP1;P1;durP2;ratioP2;P2;SDS_P1;SDS_P2;PMS_P1;PMS_P2;Temp;Humidity;BMP_temperature;BMP_pressure;BME280_temperature;BME280_humidity;BME280_pressure;Samples;Min_cycle;Max_cycle;Signal;HPM_P1;HPM_P2
2021/11/15 00:02:14;;;;;;;8.23;6.70;;;12.40;90.10;;;;;;5012900;28;20401;-75
2021/11/15 00:04:41;;;;;;;8.70;6.70;;;12.40;90.10;;;;;;5009398;28;20435;-74
2021/11/15 00:07:07;;;;;;;7.28;6.10;;;12.40;90.20;;;;;;5008654;28;20508;-75
2021/11/15 00:09:33;;;;;;;8.23;6.50;;;12.40;90.20;;;;;;5009000;28;20405;-75
2021/11/15 00:12:00;;;;;;;9.05;6.60;;;12.30;90.20;;;;;;5011277;28;20957;-76
2021/11/15 00:14:26;;;;;;;9.10;6.93;;;12.30;90.20;;;;;;5011492;28;20412;-75
2021/11/15 00:16:52;;;;;;;9.68;6.85;;;12.20;90.10;;;;;;5011713;28;20920;-75
2021/11/15 00:19:18;;;;;;;9.47;6.60;;;12.20;90.20;;;;;;4995202;28;20403;-75
2021/11/15 00:21:44;;;;;;;8.27;6.40;;;12.20;90.20;;;;;;5010272;28;20413;-74
2021/11/15 00:24:10;;;;;;;7.47;6.10;;;12.20;90.10;;;;;;5008971;28;20840;-74
2021/11/15 00:26:35;;;;;;;8.07;6.38;;;12.20;90.10;;;;;;4993688;28;20487;-74
2021/11/15 00:29:02;;;;;;;8.85;6.80;;;12.10;90.10;;;;;;5010837;28;20385;-75
2021/11/15 00:31:28;;;;;;;8.60;6.90;;;12.20;90.30;;;;;;5008912;28;20478;-75
2021/11/15 00:33:53;;;;;;;8.50;6.43;;;12.20;90.30;;;;;;5008665;28;20874;-75
2021/11/15 00:36:20;;;;;;;8.70;6.70;;;12.10;90.30;;;;;;5007389;28;20435;-75
2021/11/15 00:38:46;;;;;;;9.27;6.85;;;12.10;90.30;;;;;;5009140;28;20447;-75
2021/11/15 00:41:12;;;;;;;8.98;6.47;;;12.00;90.30;;;;;;5011775;28;20869;-74
2021/11/15 00:43:38;;;;;;;8.67;6.87;;;12.00;90.50;;;;;;5008480;28;20409;-74
2021/11/15 00:46:04;;;;;;;9.38;6.68;;;12.00;90.60;;;;;;5004840;28;20913;-74
2021/11/15 00:48:30;;;;;;;9.52;7.15;;;12.00;90.70;;;;;;5008145;28;21134;-74
2021/11/15 00:50:56;;;;;;;10.15;7.30;;;12.00;90.70;;;;;;5008011;28;20410;-75
2021/11/15 00:53:22;;;;;;;7.95;6.90;;;12.00;90.70;;;;;;5011223;28;20903;-75
2021/11/15 00:55:48;;;;;;;9.02;7.22;;;12.00;90.70;;;;;;5002828;28;20399;-75
2021/11/15 00:58:13;;;;;;;10.43;7.60;;;12.00;90.50;;;;;;4997199;28;20508;-75
2021/11/15 01:00:41;;;;;;;9.23;7.53;;;11.90;90.60;;;;;;5004654;28;20425;-75
2021/11/15 01:03:10;;;;;;;10.25;7.70;;;11.90;90.60;;;;;;5008054;28;20422;-75
2021/11/15 01:05:38;;;;;;;9.63;7.40;;;11.90;90.60;;;;;;5009548;28;20408;-75
2021/11/15 01:08:06;;;;;;;9.98;7.68;;;11.90;90.70;;;;;;5010320;28;20432;-75
2021/11/15 01:10:32;;;;;;;10.60;7.32;;;11.90;90.70;;;;;;5007814;28;20396;-75
2021/11/15 01:12:58;;;;;;;10.30;7.40;;;11.80;90.40;;;;;;5009865;28;20422;-75
2021/11/15 01:15:27;;;;;;;10.32;7.45;;;11.80;90.50;;;;;;5008568;28;20407;-75
2021/11/15 01:17:54;;;;;;;10.27;7.93;;;11.80;90.60;;;;;;5011575;28;20510;-75
2021/11/15 01:20:23;;;;;;;9.68;7.63;;;11.80;90.60;;;;;;5010873;28;20739;-75
2021/11/15 01:22:49;;;;;;;10.57;7.93;;;11.80;90.40;;;;;;5008817;28;20392;-75
2021/11/15 01:25:15;;;;;;;9.57;7.50;;;11.70;90.30;;;;;;4992682;28;20486;-75
2021/11/15 01:27:40;;;;;;;9.93;8.20;;;11.80;90.40;;;;;;5007957;28;20482;-75
2021/11/15 01:30:10;;;;;;;10.10;8.20;;;11.80;90.20;;;;;;5008078;28;20421;-75
2021/11/15 01:32:40;;;;;;;10.90;8.30;;;11.70;90.20;;;;;;5009305;28;20781;-75
2021/11/15 01:35:06;;;;;;;11.13;8.40;;;11.70;90.30;;;;;;5009820;28;20397;-75
2021/11/15 01:37:32;;;;;;;11.02;8.48;;;11.60;90.40;;;;;;5007261;28;20420;-75
2021/11/15 01:39:58;;;;;;;10.83;8.77;;;11.70;90.50;;;;;;5007510;28;20458;-75
2021/11/15 01:42:23;;;;;;;10.10;8.40;;;11.70;90.30;;;;;;5007718;28;20416;-75
2021/11/15 01:44:49;;;;;;;11.13;9.02;;;11.70;90.20;;;;;;4991169;28;20463;-75
2021/11/15 01:47:15;;;;;;;11.52;8.95;;;11.80;90.60;;;;;;4988736;28;20405;-75
2021/11/15 01:49:41;;;;;;;10.98;8.75;;;11.70;90.10;;;;;;5009422;28;20462;-75
2021/11/15 01:52:07;;;;;;;11.90;9.50;;;11.70;90.20;;;;;;5007336;28;20417;-75
2021/11/15 01:54:34;;;;;;;13.15;9.52;;;11.70;90.00;;;;;;5007641;28;20415;-74
2021/11/15 01:56:59;;;;;;;12.13;9.50;;;11.60;90.00;;;;;;5018030;28;20459;-74
2021/11/15 01:59:27;;;;;;;13.27;9.88;;;11.60;90.10;;;;;;5004495;28;20390;-74
2021/11/15 02:01:53;;;;;;;11.27;9.52;;;11.50;90.20;;;;;;5009673;28;20491;-75
2021/11/15 02:04:19;;;;;;;12.73;9.90;;;11.60;90.20;;;;;;5007277;28;20813;-74
2021/11/15 02:06:45;;;;;;;11.35;9.45;;;11.50;90.00;;;;;;5007596;28;20474;-74
2021/11/15 02:09:11;;;;;;;10.82;9.25;;;11.50;90.10;;;;;;4991805;28;20435;-74
2021/11/15 02:11:37;;;;;;;11.40;9.40;;;11.60;90.00;;;;;;5009248;28;20432;-74
2021/11/15 02:14:04;;;;;;;12.07;9.90;;;11.60;89.70;;;;;;5009234;28;20388;-74
2021/11/15 02:16:30;;;;;;;11.85;9.52;;;11.60;89.70;;;;;;5006687;28;20936;-75
2021/11/15 02:18:57;;;;;;;12.77;9.73;;;11.50;89.50;;;;;;4992945;28;20419;-74
2021/11/15 02:21:23;;;;;;;12.45;10.00;;;11.60;89.80;;;;;;4992210;28;20456;-76
2021/11/15 02:23:50;;;;;;;12.77;10.18;;;11.60;89.00;;;;;;5007251;28;20436;-75
2021/11/15 02:26:19;;;;;;;12.65;9.55;;;11.50;89.00;;;;;;5006567;28;20401;-75
2021/11/15 02:28:47;;;;;;;12.45;9.90;;;11.50;89.20;;;;;;5007466;28;20893;-75
2021/11/15 02:31:16;;;;;;;12.77;10.00;;;11.50;88.90;;;;;;5006668;28;20495;-74
2021/11/15 02:33:42;;;;;;;12.63;9.90;;;11.40;88.80;;;;;;4989697;28;20503;-75
2021/11/15 02:36:09;;;;;;;13.07;10.47;;;11.40;88.70;;;;;;5007092;28;21051;-74
2021/11/15 02:38:35;;;;;;;13.07;10.10;;;11.40;89.80;;;;;;5008987;28;20519;-74
2021/11/15 02:41:02;;;;;;;13.48;10.23;;;11.30;88.70;;;;;;4988041;28;20473;-74
2021/11/15 02:43:28;;;;;;;13.52;11.15;;;11.30;88.60;;;;;;5004443;28;20411;-74
2021/11/15 02:45:54;;;;;;;15.20;11.77;;;11.30;88.40;;;;;;5008342;28;20421;-74
2021/11/15 02:48:22;;;;;;;14.33;10.80;;;11.30;88.20;;;;;;5008699;28;20466;-74
2021/11/15 02:50:48;;;;;;;14.50;11.27;;;11.30;88.70;;;;;;4991804;28;20393;-74
2021/11/15 02:53:14;;;;;;;14.80;11.70;;;11.40;88.40;;;;;;5010154;28;20393;-75
2021/11/15 02:55:43;;;;;;;15.23;12.10;;;11.30;87.90;;;;;;5017495;28;20450;-75
2021/11/15 02:58:09;;;;;;;15.25;12.02;;;11.20;87.80;;;;;;5013405;28;20416;-74
2021/11/15 03:00:39;;;;;;;15.10;11.40;;;11.30;87.90;;;;;;5011458;28;21250;-74
2021/11/15 03:03:05;;;;;;;15.87;11.97;;;11.30;87.90;;;;;;5010458;28;20500;-75
2021/11/15 03:05:36;;;;;;;14.75;11.95;;;11.20;87.80;;;;;;5011891;28;20409;-75
2021/11/15 03:08:03;;;;;;;16.60;12.95;;;11.10;87.50;;;;;;5011043;28;20401;-74
2021/11/15 03:10:29;;;;;;;16.90;13.50;;;11.10;87.70;;;;;;5008947;28;20881;-74
2021/11/15 03:12:57;;;;;;;16.10;12.93;;;11.10;87.70;;;;;;4994306;28;20467;-74
2021/11/15 03:15:30;;;;;;;18.08;13.55;;;11.10;87.80;;;;;;5009041;28;20401;-75
2021/11/15 03:18:07;;;;;;;17.10;13.60;;;11.20;87.60;;;;;;5009711;28;20422;-74
2021/11/15 03:20:37;;;;;;;17.63;13.60;;;11.10;87.10;;;;;;5011263;28;20927;-74
2021/11/15 03:23:06;;;;;;;17.98;13.98;;;11.10;87.50;;;;;;5010629;28;20940;-75
2021/11/15 03:25:31;;;;;;;18.48;13.75;;;11.10;87.50;;;;;;5009022;28;20432;-75
2021/11/15 03:27:57;;;;;;;18.85;14.43;;;11.00;87.00;;;;;;5010782;28;20943;-75
2021/11/15 03:30:24;;;;;;;20.42;15.13;;;11.00;87.30;;;;;;5008392;28;20389;-75
2021/11/15 03:32:51;;;;;;;20.65;14.25;;;11.00;86.80;;;;;;4993137;28;20410;-75
2021/11/15 03:35:17;;;;;;;20.65;14.90;;;10.90;87.00;;;;;;4994870;28;20401;-75
2021/11/15 03:37:43;;;;;;;19.15;14.05;;;10.90;87.50;;;;;;5010334;28;20426;-74
2021/11/15 03:40:13;;;;;;;19.87;14.40;;;10.90;87.40;;;;;;5008958;28;20769;-74
2021/11/15 03:42:39;;;;;;;19.95;14.63;;;11.00;87.30;;;;;;5008808;28;20408;-74
2021/11/15 03:45:06;;;;;;;20.40;14.40;;;10.90;86.80;;;;;;5010235;28;20413;-75
2021/11/15 03:47:32;;;;;;;18.95;14.05;;;10.90;87.00;;;;;;5010947;28;20531;-75
2021/11/15 03:49:58;;;;;;;19.17;13.77;;;11.00;87.30;;;;;;5010028;28;20407;-75
2021/11/15 03:52:24;;;;;;;18.15;13.80;;;11.00;86.60;;;;;;5010243;28;20409;-74
2021/11/15 03:54:50;;;;;;;18.55;14.13;;;10.90;85.80;;;;;;5012541;28;20405;-75
2021/11/15 03:57:15;;;;;;;18.40;14.23;;;10.90;86.10;;;;;;5005894;28;20472;-74
2021/11/15 03:59:42;;;;;;;18.73;14.18;;;10.90;86.30;;;;;;4992305;28;20401;-75
2021/11/15 04:02:08;;;;;;;19.38;14.45;;;10.90;85.80;;;;;;5012285;28;20479;-74
2021/11/15 04:05:26;;;;;;;18.63;13.93;;;10.80;85.50;;;;;;4945478;28;1266628;-74
2021/11/15 04:07:36;;;;;;;19.50;14.73;;;10.70;86.20;;;;;;5002001;28;20413;-74
2021/11/15 04:10:16;;;;;;;19.90;14.13;;;10.70;86.10;;;;;;5009409;28;20392;-74
2021/11/15 04:12:43;;;;;;;21.23;15.15;;;10.70;85.80;;;;;;5009049;28;21142;-75
2021/11/15 04:15:11;;;;;;;19.77;14.57;;;10.70;85.90;;;;;;5009322;28;20398;-75
2021/11/15 04:17:38;;;;;;;18.63;14.27;;;10.60;85.80;;;;;;5010892;28;20435;-74
2021/11/15 04:20:08;;;;;;;19.45;14.90;;;10.70;85.80;;;;;;5011697;28;20396;-74
2021/11/15 04:22:35;;;;;;;22.35;15.75;;;10.60;85.60;;;;;;5010854;28;20398;-75
2021/11/15 04:25:03;;;;;;;18.17;14.27;;;10.50;86.00;;;;;;5009081;28;20491;-74
2021/11/15 04:27:29;;;;;;;17.77;13.68;;;10.50;86.00;;;;;;5008549;28;20401;-74
2021/11/15 04:29:54;;;;;;;18.55;13.32;;;10.60;86.20;;;;;;5009300;28;20775;-74
2021/11/15 04:32:20;;;;;;;18.05;13.48;;;10.50;86.10;;;;;;5012228;28;20411;-74
2021/11/15 04:34:46;;;;;;;18.08;13.57;;;10.50;85.80;;;;;;5009222;28;20915;-74
2021/11/15 04:37:11;;;;;;;17.17;13.15;;;10.40;85.30;;;;;;5008930;28;20447;-74
2021/11/15 04:39:37;;;;;;;18.05;12.82;;;10.30;85.20;;;;;;5008885;28;20959;-74
2021/11/15 04:42:03;;;;;;;17.58;12.95;;;10.20;85.60;;;;;;5008754;28;20903;-74
2021/11/15 04:44:29;;;;;;;18.15;12.55;;;10.20;86.00;;;;;;5010921;28;20420;-75
2021/11/15 04:46:55;;;;;;;17.20;12.90;;;10.20;85.90;;;;;;4992511;28;20405;-74
2021/11/15 04:49:21;;;;;;;16.90;13.02;;;10.20;86.40;;;;;;4990636;28;20925;-74
2021/11/15 04:51:46;;;;;;;16.35;12.82;;;10.20;86.20;;;;;;5007010;28;20424;-74
2021/11/15 04:54:14;;;;;;;16.27;12.75;;;10.10;86.10;;;;;;5010277;28;20458;-74
2021/11/15 04:56:40;;;;;;;16.23;12.25;;;10.10;86.70;;;;;;5024567;28;20425;-75
2021/11/15 04:59:06;;;;;;;15.75;11.98;;;10.20;86.30;;;;;;5012236;28;20435;-74
2021/11/15 05:01:32;;;;;;;15.70;12.27;;;10.20;86.10;;;;;;4993699;28;20445;-74
2021/11/15 05:03:58;;;;;;;15.00;11.70;;;10.10;86.00;;;;;;5008649;28;20404;-74
2021/11/15 05:06:24;;;;;;;15.83;12.10;;;10.10;86.40;;;;;;4993729;28;20456;-75
2021/11/15 05:08:49;;;;;;;17.00;12.85;;;10.10;86.60;;;;;;4991703;28;20833;-74
2021/11/15 05:11:15;;;;;;;16.92;12.90;;;10.00;86.90;;;;;;5007399;28;20488;-74
2021/11/15 05:13:41;;;;;;;16.83;12.73;;;10.00;87.10;;;;;;5009846;28;20503;-74
2021/11/15 05:16:06;;;;;;;16.70;12.70;;;10.00;87.10;;;;;;5008125;28;20417;-74
2021/11/15 05:18:32;;;;;;;16.55;12.80;;;10.10;87.20;;;;;;5009860;28;20416;-74
2021/11/15 05:20:57;;;;;;;16.77;12.80;;;10.10;87.50;;;;;;5008283;28;20770;-74
2021/11/15 05:23:24;;;;;;;16.40;12.55;;;10.30;87.40;;;;;;5010723;28;20444;-74
2021/11/15 05:25:49;;;;;;;16.13;12.52;;;10.10;86.60;;;;;;5008501;28;20388;-74
2021/11/15 05:28:15;;;;;;;17.27;13.17;;;10.20;87.40;;;;;;5009416;28;20539;-74
2021/11/15 05:30:41;;;;;;;15.97;12.77;;;10.20;87.30;;;;;;5009706;28;20487;-74
2021/11/15 05:33:06;;;;;;;17.57;13.23;;;10.10;87.40;;;;;;5007743;28;20421;-74
2021/11/15 05:35:32;;;;;;;16.50;12.77;;;10.10;87.90;;;;;;5010148;28;20916;-74
2021/11/15 05:37:58;;;;;;;17.73;13.27;;;10.20;88.30;;;;;;5011012;28;20417;-74
2021/11/15 05:40:26;;;;;;;19.93;14.97;;;10.30;88.10;;;;;;4992341;28;20400;-74
2021/11/15 05:42:53;;;;;;;24.63;17.58;;;10.20;87.20;;;;;;5007673;28;20447;-74
2021/11/15 05:45:20;;;;;;;26.55;18.55;;;10.20;88.00;;;;;;5008039;28;20409;-74
2021/11/15 05:47:46;;;;;;;26.05;19.08;;;10.20;88.60;;;;;;5011231;28;20430;-74
2021/11/15 05:50:12;;;;;;;26.65;18.75;;;10.00;88.30;;;;;;5015275;28;20396;-75
2021/11/15 05:52:43;;;;;;;26.52;18.98;;;10.00;88.90;;;;;;5011770;28;20400;-75
2021/11/15 05:55:12;;;;;;;27.57;19.13;;;10.00;89.10;;;;;;5013947;28;20406;-73
2021/11/15 05:57:37;;;;;;;26.40;18.50;;;9.80;89.60;;;;;;5012275;28;20488;-74
2021/11/15 06:00:07;;;;;;;28.63;19.30;;;9.90;90.00;;;;;;4991033;28;20918;-74
2021/11/15 06:02:33;;;;;;;29.33;20.07;;;9.90;89.80;;;;;;5009497;28;20491;-74
2021/11/15 06:04:58;;;;;;;28.45;17.38;;;10.00;89.70;;;;;;5012300;28;20506;-74
2021/11/15 06:07:24;;;;;;;26.95;14.32;;;10.00;88.40;;;;;;5010114;28;20030;-74
2021/11/15 06:09:49;;;;;;;23.55;14.10;;;9.90;88.20;;;;;;5009686;28;20075;-74
2021/11/15 06:12:15;;;;;;;27.13;15.52;;;10.00;89.10;;;;;;5010310;28;20025;-74
2021/11/15 06:14:41;;;;;;;26.40;14.73;;;9.90;89.10;;;;;;5009917;28;20033;-74
2021/11/15 06:17:06;;;;;;;26.23;14.80;;;10.00;89.50;;;;;;5010885;28;20401;-74
2021/11/15 06:19:32;;;;;;;25.63;14.70;;;10.00;89.50;;;;;;5007891;28;20028;-74
2021/11/15 06:21:58;;;;;;;27.85;15.30;;;10.00;89.20;;;;;;5014020;28;20030;-74
2021/11/15 06:24:24;;;;;;;23.35;13.70;;;10.10;89.10;;;;;;4993339;28;20033;-74
2021/11/15 06:26:49;;;;;;;24.20;14.32;;;10.10;89.10;;;;;;5008477;28;20387;-74
2021/11/15 06:29:15;;;;;;;25.33;15.18;;;10.20;89.30;;;;;;5025429;28;20022;-74
2021/11/15 06:31:41;;;;;;;25.77;15.35;;;10.20;88.80;;;;;;5008593;28;20059;-74
2021/11/15 06:34:06;;;;;;;23.08;13.82;;;10.10;88.40;;;;;;5010619;28;20098;-74
2021/11/15 06:36:32;;;;;;;28.75;15.45;;;10.10;88.50;;;;;;5014203;28;20091;-74
2021/11/15 06:38:58;;;;;;;24.25;14.38;;;10.10;88.40;;;;;;5011887;28;20026;-74
2021/11/15 06:41:25;;;;;;;24.95;14.40;;;10.20;88.40;;;;;;4997615;28;20021;-74
2021/11/15 06:43:51;;;;;;;27.55;15.23;;;10.10;88.00;;;;;;5013065;28;20124;-74
2021/11/15 06:46:18;;;;;;;26.17;14.57;;;10.10;88.00;;;;;;5013456;28;20042;-74
2021/11/15 06:48:44;;;;;;;29.40;15.88;;;10.10;88.10;;;;;;5013735;28;20029;-72
2021/11/15 06:51:11;;;;;;;25.63;14.38;;;10.00;87.70;;;;;;4996034;28;20030;-74
2021/11/15 06:53:39;;;;;;;26.55;14.30;;;10.00;87.70;;;;;;5014529;28;20067;-74
2021/11/15 06:56:06;;;;;;;24.83;14.70;;;10.00;88.30;;;;;;5026616;28;20476;-74
2021/11/15 06:58:33;;;;;;;28.33;15.40;;;10.00;88.10;;;;;;5015184;28;20026;-74
2021/11/15 07:00:59;;;;;;;22.73;13.30;;;10.00;88.70;;;;;;5011608;28;20076;-74
2021/11/15 07:03:26;;;;;;;23.35;13.95;;;10.00;88.10;;;;;;5011197;28;20494;-74
2021/11/15 07:05:51;;;;;;;25.05;14.15;;;10.10;87.70;;;;;;4994424;28;20078;-74
2021/11/15 07:08:17;;;;;;;27.17;15.05;;;10.00;87.20;;;;;;5014715;28;20018;-74
2021/11/15 07:10:43;;;;;;;24.85;14.32;;;10.00;87.20;;;;;;5011187;28;20030;-74
2021/11/15 07:13:10;;;;;;;29.50;14.95;;;9.90;87.60;;;;;;5011268;28;20032;-74
2021/11/15 07:15:35;;;;;;;22.85;13.15;;;9.90;88.60;;;;;;5011035;28;20030;-75
2021/11/15 07:18:01;;;;;;;;;;;9.80;87.40;;;;;;4997102;28;20060;-75
2021/11/15 07:20:27;;;;;;;23.65;13.40;;;9.80;87.10;;;;;;5013658;28;19912;-74
2021/11/15 07:22:52;;;;;;;23.08;13.38;;;9.80;87.80;;;;;;5012093;28;20080;-74
2021/11/15 07:25:20;;;;;;;22.85;13.68;;;9.80;87.60;;;;;;5011319;28;20507;-74
2021/11/15 07:27:56;;;;;;;22.70;13.00;;;9.80;87.80;;;;;;5011741;28;20053;-74
2021/11/15 07:30:22;;;;;;;23.55;12.55;;;9.70;87.20;;;;;;5013052;28;20026;-75
2021/11/15 07:32:48;;;;;;;21.63;13.40;;;9.70;87.60;;;;;;5009736;28;20022;-74
2021/11/15 07:35:16;;;;;;;23.73;13.65;;;9.70;87.80;;;;;;5013991;28;20018;-75
2021/11/15 07:37:42;;;;;;;23.90;13.88;;;9.80;88.00;;;;;;4995900;28;20046;-74
2021/11/15 07:40:10;;;;;;;23.08;13.20;;;9.80;87.80;;;;;;5012193;28;20493;-74
2021/11/15 07:42:36;;;;;;;26.23;13.88;;;9.90;88.00;;;;;;5012120;28;20037;-72
2021/11/15 07:45:03;;;;;;;19.98;12.57;;;10.10;88.10;;;;;;5024455;28;20501;-74
2021/11/15 07:47:29;;;;;;;22.58;12.52;;;10.20;87.50;;;;;;5018182;28;20025;-73
2021/11/15 07:49:54;;;;;;;22.00;12.82;;;10.40;87.90;;;;;;5013325;28;20030;-72
2021/11/15 07:52:21;;;;;;;20.17;12.55;;;10.60;87.50;;;;;;5011866;28;20117;-71
2021/11/15 07:54:47;;;;;;;20.63;12.50;;;10.90;88.10;;;;;;5018107;28;20029;-73
2021/11/15 07:57:14;;;;;;;19.98;12.43;;;11.00;86.30;;;;;;4996111;28;20029;-74
2021/11/15 07:59:40;;;;;;;19.00;12.30;;;11.20;86.60;;;;;;5016510;28;20033;-74
2021/11/15 08:02:06;;;;;;;20.42;12.25;;;11.40;85.80;;;;;;5011592;28;20088;-74
2021/11/15 08:04:33;;;;;;;17.38;10.77;;;11.60;84.90;;;;;;5008599;28;20179;-74
2021/11/15 08:06:59;;;;;;;16.92;10.98;;;11.80;84.80;;;;;;5018377;28;20489;-73
2021/11/15 08:09:25;;;;;;;21.15;12.23;;;11.80;83.60;;;;;;5012390;28;20022;-74
2021/11/15 08:11:55;;;;;;;17.42;11.00;;;11.70;83.50;;;;;;5015826;28;20092;-70
2021/11/15 08:14:20;;;;;;;19.33;12.95;;;11.80;83.10;;;;;;5024615;28;20025;-70
2021/11/15 08:16:50;;;;;;;22.15;13.45;;;11.80;82.90;;;;;;5012470;28;20453;-69
2021/11/15 08:19:16;;;;;;;20.15;12.50;;;11.90;84.70;;;;;;5002673;28;20026;-68
2021/11/15 08:21:42;;;;;;;21.17;12.30;;;11.90;82.70;;;;;;5021012;28;20032;-69
2021/11/15 08:24:16;;;;;;;18.42;11.48;;;12.00;82.30;;;;;;5014670;28;20030;-69
2021/11/15 08:26:52;;;;;;;18.27;11.30;;;12.10;82.90;;;;;;5021330;28;20022;-69
2021/11/15 08:29:19;;;;;;;20.05;12.15;;;12.20;81.50;;;;;;5015129;28;20091;-69
2021/11/15 08:31:46;;;;;;;18.83;11.95;;;12.30;81.90;;;;;;5009553;28;20023;-69
2021/11/15 08:34:13;;;;;;;18.40;11.38;;;12.40;81.50;;;;;;5010726;28;20025;-74
2021/11/15 08:36:40;;;;;;;20.95;12.18;;;12.70;82.10;;;;;;5007499;28;20055;-73
2021/11/15 08:39:09;;;;;;;18.50;11.75;;;12.90;80.30;;;;;;5025315;28;20017;-74
2021/11/15 08:41:38;;;;;;;17.30;11.05;;;13.10;80.50;;;;;;5017973;28;20540;-73
2021/11/15 08:44:05;;;;;;;19.55;11.85;;;13.20;79.60;;;;;;5002463;28;20087;-74
2021/11/15 08:46:33;;;;;;;18.50;12.20;;;13.40;79.10;;;;;;5011516;28;20585;-71
2021/11/15 08:49:00;;;;;;;19.42;11.65;;;13.50;78.20;;;;;;5014091;28;20021;-73
2021/11/15 08:51:26;;;;;;;18.95;11.90;;;13.70;79.00;;;;;;5016056;28;20030;-74
2021/11/15 08:53:57;;;;;;;18.77;12.25;;;13.90;77.50;;;;;;5013313;28;20030;-74
2021/11/15 08:56:23;;;;;;;18.02;11.70;;;14.10;77.20;;;;;;5006035;28;20036;-73
2021/11/15 08:58:49;;;;;;;19.13;11.90;;;14.30;76.90;;;;;;5011907;28;20037;-73
2021/11/15 09:01:15;;;;;;;20.98;12.70;;;14.50;75.80;;;;;;5013608;28;20021;-73
2021/11/15 09:03:43;;;;;;;19.02;12.18;;;14.70;74.50;;;;;;5014223;28;20044;-73
2021/11/15 09:06:10;;;;;;;18.42;11.70;;;14.90;74.30;;;;;;4988109;28;20108;-74
2021/11/15 09:08:38;;;;;;;17.58;11.45;;;15.00;73.60;;;;;;5011076;28;20104;-73
2021/11/15 09:11:05;;;;;;;19.67;11.95;;;15.20;72.90;;;;;;5018841;28;20057;-72
2021/11/15 09:13:31;;;;;;;19.25;12.23;;;15.40;72.80;;;;;;5018264;28;20104;-72
2021/11/15 09:15:57;;;;;;;16.98;10.85;;;15.60;72.10;;;;;;5016559;28;20084;-75
2021/11/15 09:18:23;;;;;;;15.48;10.85;;;15.70;71.10;;;;;;5012030;28;20022;-73
2021/11/15 09:20:49;;;;;;;16.48;10.57;;;15.80;70.70;;;;;;5018431;28;20040;-74
2021/11/15 09:23:14;;;;;;;18.40;11.38;;;15.90;70.50;;;;;;5016036;28;20100;-74
2021/11/15 09:25:41;;;;;;;17.85;10.70;;;16.10;70.00;;;;;;5018120;28;20033;-74
2021/11/15 09:28:08;;;;;;;15.80;10.68;;;16.30;69.40;;;;;;5013130;28;20450;-76
2021/11/15 09:30:36;;;;;;;15.95;10.82;;;16.40;68.40;;;;;;5015574;28;20101;-76
2021/11/15 09:33:03;;;;;;;17.08;11.15;;;16.50;68.00;;;;;;5023997;28;20026;-76
2021/11/15 09:35:28;;;;;;;16.42;11.40;;;16.60;66.50;;;;;;5015660;28;20452;-76
2021/11/15 09:37:54;;;;;;;17.60;11.65;;;16.80;66.30;;;;;;5019676;28;20029;-76
2021/11/15 09:40:20;;;;;;;15.02;10.02;;;16.70;64.40;;;;;;5007725;28;20096;-75
2021/11/15 09:42:46;;;;;;;;;;;16.80;66.20;;;;;;5015206;28;20056;-75
2021/11/15 09:45:12;;;;;;;;;;;17.00;69.90;;;;;;5006811;28;19917;-72
2021/11/15 09:47:39;;;;;;;;;;;17.30;70.50;;;;;;5014991;28;19905;-73
2021/11/15 09:50:06;;;;;;;;;;;17.50;69.70;;;;;;5014313;28;19905;-70
2021/11/15 09:52:32;;;;;;;;;;;17.50;69.50;;;;;;5010020;28;19936;-75
2021/11/15 09:54:59;;;;;;;;;;;17.50;70.50;;;;;;5015510;28;20233;-71
2021/11/15 09:57:25;;;;;;;;;;;17.70;69.60;;;;;;5010790;28;20349;-72
2021/11/15 09:59:50;;;;;;;;;;;17.70;68.50;;;;;;5002897;28;19913;-72
2021/11/15 10:02:16;;;;;;;;;;;17.70;69.60;;;;;;5004518;28;19905;-71
2021/11/15 10:04:41;;;;;;;;;;;17.60;67.70;;;;;;5012038;28;20390;-71
2021/11/15 10:07:07;;;;;;;;;;;17.70;69.70;;;;;;4999780;28;19932;-72
2021/11/15 10:09:35;;;;;;;;;;;17.80;68.80;;;;;;5019473;28;19956;-71
2021/11/15 10:12:08;;;;;;;;;;;17.90;68.20;;;;;;5011733;28;19993;-71
2021/11/15 10:14:34;;;;;;;;;;;18.00;69.30;;;;;;5022869;28;19916;-70
2021/11/15 10:17:02;;;;;;;;;;;18.20;68.50;;;;;;5012761;28;20068;-72
2021/11/15 10:19:28;;;;;;;;;;;18.20;67.40;;;;;;5018010;28;20004;-72
2021/11/15 10:21:55;;;;;;;;;;;18.40;67.60;;;;;;5015853;28;19941;-71
2021/11/15 10:24:22;;;;;;;;;;;18.40;66.70;;;;;;4997786;28;19916;-72
2021/11/15 10:26:55;;;;;;;;;;;18.40;65.80;;;;;;5005231;28;19913;-72
2021/11/15 10:29:21;;;;;;;;;;;18.40;66.40;;;;;;5006888;28;19964;-71
2021/11/15 10:32:01;;;;;;;15.20;10.82;;;18.60;66.70;;;;;;5002229;28;19909;-71
2021/11/15 10:34:51;;;;;;;16.67;11.50;;;18.60;63.60;;;;;;5007967;28;20025;-71
2021/11/15 10:37:19;;;;;;;16.48;11.05;;;18.60;62.70;;;;;;5009738;28;20033;-71
2021/11/15 10:39:47;;;;;;;18.60;12.15;;;18.70;59.80;;;;;;5010696;28;20034;-72
2021/11/15 10:42:22;;;;;;;18.55;11.52;;;18.80;60.10;;;;;;5008458;28;20044;-71
2021/11/15 10:44:59;;;;;;;16.92;12.13;;;19.00;60.40;;;;;;5006299;28;20041;-73
2021/11/15 10:47:34;;;;;;;16.65;12.35;;;18.90;61.30;;;;;;5008813;28;20101;-75
2021/11/15 10:50:45;;;;;;;16.35;12.07;;;18.80;58.30;;;;;;5008368;28;20117;-86
2021/11/15 10:53:20;;;;;;;16.90;11.63;;;19.00;62.90;;;;;;5006915;28;20040;-74
2021/11/15 10:56:06;;;;;;;16.08;11.57;;;19.00;58.60;;;;;;4991207;28;20022;-70
2021/11/15 10:58:39;;;;;;;18.80;13.15;;;19.00;59.40;;;;;;5006685;28;20045;-70
2021/11/15 11:01:05;;;;;;;19.80;15.02;;;18.70;56.40;;;;;;5002868;28;20816;-62
2021/11/15 11:03:32;;;;;;;20.90;15.68;;;18.40;56.70;;;;;;5006235;28;20422;-66
2021/11/15 11:06:03;;;;;;;21.17;16.00;;;18.20;56.70;;;;;;5006714;28;20479;-65
2021/11/15 11:08:37;;;;;;;19.83;15.57;;;18.00;55.90;;;;;;5005621;28;20409;-67
2021/11/15 11:11:06;;;;;;;18.70;14.95;;;17.70;56.40;;;;;;5007896;28;20393;-64
2021/11/15 11:14:01;;;;;;;20.35;15.43;;;17.60;56.70;;;;;;5005557;28;20404;-63
2021/11/15 11:16:43;;;;;;;19.87;15.20;;;17.60;56.30;;;;;;5002050;28;20423;-69
2021/11/15 11:19:33;;;;;;;20.10;15.45;;;17.60;56.90;;;;;;5005795;28;20416;-69
2021/11/15 11:23:06;;;;;;;20.30;15.30;;;17.70;56.30;;;;;;5009460;28;20409;-69
2021/11/15 11:27:34;;;;;;;20.48;16.02;;;18.00;56.30;;;;;;5027109;28;20407;-69
2021/11/15 11:30:02;;;;;;;19.88;15.77;;;18.10;56.20;;;;;;5009418;28;20411;-70
2021/11/15 11:32:29;;;;;;;19.73;15.38;;;18.30;54.90;;;;;;5003599;28;20941;-77
2021/11/15 11:34:59;;;;;;;21.30;16.33;;;18.40;54.60;;;;;;5009599;28;20470;-73
2021/11/15 11:37:27;;;;;;;21.30;16.25;;;18.40;54.70;;;;;;4989518;28;20508;-73
2021/11/15 11:39:55;;;;;;;20.35;15.65;;;18.70;54.10;;;;;;5016389;28;20436;-74
2021/11/15 11:42:21;;;;;;;20.15;16.02;;;18.80;52.60;;;;;;5009521;28;20432;-73
2021/11/15 11:44:48;;;;;;;20.67;15.95;;;18.80;52.80;;;;;;5010555;28;20403;-70
2021/11/15 11:47:16;;;;;;;20.00;15.90;;;18.60;53.60;;;;;;5014255;28;20404;-71
2021/11/15 11:49:43;;;;;;;20.45;15.93;;;18.70;52.60;;;;;;5011033;28;20436;-71
2021/11/15 11:52:12;;;;;;;18.98;15.18;;;18.40;52.40;;;;;;5009496;28;20397;-71
2021/11/15 11:54:42;;;;;;;19.77;15.43;;;18.10;53.60;;;;;;5009235;28;20475;-70
2021/11/15 11:57:19;;;;;;;20.02;14.05;;;18.00;54.50;;;;;;5009855;28;20081;-70
2021/11/15 11:59:46;;;;;;;18.50;13.57;;;18.60;55.40;;;;;;5011929;28;20407;-70
2021/11/15 12:02:17;;;;;;;22.23;14.52;;;19.00;54.40;;;;;;5020077;28;20033;-70
2021/11/15 12:04:48;;;;;;;17.17;12.52;;;19.20;54.50;;;;;;5021202;28;20058;-68
2021/11/15 12:07:39;;;;;;;17.92;12.48;;;19.20;53.90;;;;;;5014442;28;20033;-71
2021/11/15 12:10:05;;;;;;;18.50;12.32;;;19.20;54.70;;;;;;5009905;28;20034;-70
2021/11/15 12:12:52;;;;;;;18.33;12.73;;;19.40;54.20;;;;;;5009490;28;20034;-69
2021/11/15 12:15:42;;;;;;;17.80;12.50;;;19.30;55.10;;;;;;5009904;28;20045;-72
2021/11/15 12:18:19;;;;;;;19.10;12.95;;;19.30;55.50;;;;;;5005855;28;20059;-71
2021/11/15 12:21:00;;;;;;;17.67;12.25;;;19.50;54.40;;;;;;4997774;28;20036;-72
2021/11/15 12:23:27;;;;;;;18.85;12.63;;;19.40;54.30;;;;;;4989278;28;20030;-72
2021/11/15 12:26:03;;;;;;;18.42;12.75;;;19.40;53.40;;;;;;5012332;28;20032;-72
2021/11/15 12:28:30;;;;;;;15.68;11.98;;;19.40;54.30;;;;;;5010998;28;20048;-71
2021/11/15 12:30:57;;;;;;;17.45;12.70;;;19.50;54.40;;;;;;5009367;28;20376;-70
2021/11/15 12:33:26;;;;;;;17.25;12.07;;;19.60;52.20;;;;;;5009180;28;20081;-71
2021/11/15 12:36:05;;;;;;;17.73;12.10;;;19.30;53.40;;;;;;5009529;28;20013;-71
2021/11/15 12:38:44;;;;;;;18.55;12.63;;;19.20;54.10;;;;;;5020394;28;20176;-72
2021/11/15 12:41:16;;;;;;;16.85;11.85;;;19.00;54.00;;;;;;5012207;28;20025;-71
2021/11/15 12:43:43;;;;;;;17.35;11.77;;;18.80;54.10;;;;;;5009751;28;20129;-71
2021/11/15 12:46:16;;;;;;;17.05;11.65;;;18.80;54.20;;;;;;5009625;28;20105;-70